Etusivu
METAR-TAF:

METAR-TAF

Lentoasemat :

Sindal, Tanska

Leveyspiiri: 57-30N, Pituuspiiri: 010-13E, korkeus merenpinnasta: 28 m

Tämänhetkinen sää

Tämä raportti tehtiin 9 tuntia ja 12 minuuttia sitten, kello 11.50 UTC
Tuuli 22 kn idästä/kaakosta puuskistuen 33 kn:hen
Lämpötila 17°C
Kosteus 42%
Ilmanpaine 1010 hPa
Näkyvyys 10 km tai enemmän
Muutamia pilviä 1800 ft:n korkeudessa
Hajanaisia pilviä 14000 ft:n korkeudessa

METAR: EKSN 241150Z 12022G33KT 9999 FEW018 SCT140 17/04 Q1010

Aika: 23:02 (21:02 UTC)

Sääennuste

Tämä raportti tehtiin 12 tuntia ja 2 minuuttia sitten, kello 09.00 UTC
Ennuste voimassa 24. päivästä klo 09 UTC - 24. päivään klo 15 UTC
Tuuli 18 kn idästä
Näkyvyys 10 km tai enemmän
Hajanaisia pilviä 4000 ft:n korkeudessa
Ajoittain
24. päivästä klo 09 UTC - 24. päivään klo 15 UTC
Tuuli 20 kn idästä puuskistuen 32 kn:hen

TAF: EKSN 240900Z 2409/2415 10018KT 9999 SCT040 TEMPO 2409/2415 10020G32KT

Säähavainnot ja -ennusteet yli 4000 lentoasemalta (METAR- ja TAF-raportit).

Käytössä olevat sääasemat on merkitty karttaan keltaisilla ja punaisilla pisteillä.

Aseta hiiri pisteen päälle nähdäksesi sääaseman nimen.

Klikkaa sitten nähdäksesi säähavainnot ja -ennusteet.

Kartan vaihtaminen: klikkaa mustalla rastilla varustettuja vihreitä pisteitä, niin voit zoomata sisään; viivalla varustettua vihreää pistettä, niin voit zoomata ulos tai vihreitä nuolia, niin pääset viereisille kartoille.


METAR-TAF: